Time;durP1;ratioP1;P1;durP2;ratioP2;P2;SDS_P1;SDS_P2;PMS_P1;PMS_P2;Temp;Humidity;BMP_temperature;BMP_pressure;BME280_temperature;BME280_humidity;BME280_pressure;Samples;Min_cycle;Max_cycle;Signal;HPM_P1;HPM_P2
2021/08/21 18:13:43;;;;;;;5.53;4.23;;;20.70;98.30;;;;;;5129995;23;20440;-82
2021/08/21 22:11:04;;;;;;;8.13;4.70;;;18.10;98.30;;;;;;5102864;23;20597;-83
2021/08/21 22:17:07;;;;;;;11.00;4.77;;;17.90;98.30;;;;;;5075515;23;20439;-83
2021/08/21 22:23:08;;;;;;;11.30;5.57;;;18.00;98.30;;;;;;5101478;23;20478;-83
2021/08/21 22:25:15;;;;;;;8.70;5.10;;;18.10;98.30;;;;;;5092344;23;20430;-84
2021/08/21 22:27:19;;;;;;;5.87;5.00;;;18.10;98.30;;;;;;5102659;23;20512;-84
2021/08/21 22:29:23;;;;;;;9.00;5.40;;;18.00;98.30;;;;;;5076166;23;20789;-84
2021/08/21 22:34:37;;;;;;;6.17;4.93;;;18.00;98.30;;;;;;5100179;23;20905;-84
2021/08/21 22:36:40;;;;;;;7.10;4.43;;;17.80;98.30;;;;;;5102983;23;20963;-84
2021/08/21 22:38:44;;;;;;;8.17;4.90;;;17.90;98.30;;;;;;5102818;23;20513;-84
2021/08/21 22:40:47;;;;;;;7.00;4.87;;;17.80;98.30;;;;;;5102732;23;20426;-84
2021/08/21 22:42:55;;;;;;;7.27;4.60;;;17.90;98.30;;;;;;5102324;23;20415;-84
2021/08/21 22:45:04;;;;;;;7.10;5.73;;;17.80;98.30;;;;;;5102692;23;20788;-84
2021/08/21 22:47:09;;;;;;;10.03;5.10;;;17.80;98.30;;;;;;5102690;23;20451;-84
2021/08/21 22:49:13;;;;;;;6.30;5.27;;;17.70;98.30;;;;;;5103434;23;20446;-84
2021/08/21 22:51:17;;;;;;;6.80;5.17;;;17.70;98.30;;;;;;5104883;23;20423;-84
2021/08/21 22:53:20;;;;;;;7.80;5.30;;;17.70;98.30;;;;;;5103843;23;20426;-84
2021/08/21 22:55:23;;;;;;;7.70;4.60;;;17.60;98.30;;;;;;5103885;23;20427;-83
2021/08/21 22:57:26;;;;;;;8.80;4.93;;;17.60;98.30;;;;;;5103372;23;20427;-84
2021/08/21 22:59:29;;;;;;;8.23;5.60;;;17.60;98.30;;;;;;5103743;23;20447;-84
2021/08/21 23:01:32;;;;;;;5.73;5.17;;;17.50;98.30;;;;;;5104298;23;20489;-83
2021/08/21 23:03:36;;;;;;;4.50;4.10;;;17.50;98.30;;;;;;5107699;23;20426;-85
2021/08/21 23:05:39;;;;;;;5.30;4.70;;;17.50;98.30;;;;;;5105073;23;20430;-83
2021/08/21 23:07:44;;;;;;;5.57;4.93;;;17.50;98.30;;;;;;5102471;23;20534;-83
2021/08/21 23:09:47;;;;;;;6.23;4.77;;;17.50;98.30;;;;;;5102224;23;20470;-83
2021/08/21 23:11:50;;;;;;;5.70;4.97;;;17.50;98.30;;;;;;5102047;23;20433;-84
2021/08/21 23:13:54;;;;;;;6.03;5.23;;;17.50;98.30;;;;;;5102071;23;20827;-83
2021/08/21 23:15:57;;;;;;;7.40;5.03;;;17.40;98.30;;;;;;5102177;23;20450;-83
2021/08/21 23:18:00;;;;;;;5.57;4.63;;;17.50;98.30;;;;;;5101659;23;20429;-84
2021/08/21 23:20:04;;;;;;;5.23;4.70;;;17.40;98.30;;;;;;5102228;23;20764;-84
2021/08/21 23:22:07;;;;;;;5.20;4.70;;;17.40;98.30;;;;;;5101817;23;20764;-84
2021/08/21 23:24:12;;;;;;;6.80;4.40;;;17.40;98.30;;;;;;5101037;23;20431;-84
2021/08/21 23:26:15;;;;;;;5.57;4.50;;;17.40;98.30;;;;;;5101720;23;20905;-85
2021/08/21 23:28:19;;;;;;;5.10;4.10;;;17.40;98.30;;;;;;5093026;23;20490;-84
2021/08/21 23:30:23;;;;;;;6.27;4.97;;;17.40;98.30;;;;;;5101832;23;20451;-84
2021/08/21 23:32:28;;;;;;;5.20;4.67;;;17.40;98.30;;;;;;5102166;23;20430;-84
2021/08/21 23:34:31;;;;;;;4.63;4.23;;;17.30;98.30;;;;;;5101482;23;20435;-84
2021/08/21 23:36:34;;;;;;;5.70;4.77;;;17.30;98.30;;;;;;5102683;23;20518;-85
2021/08/21 23:38:38;;;;;;;9.03;5.20;;;17.40;98.30;;;;;;5103129;23;20527;-84
2021/08/21 23:40:43;;;;;;;4.90;4.40;;;17.40;98.30;;;;;;5093523;23;20441;-84
2021/08/21 23:42:46;;;;;;;5.20;4.67;;;17.40;98.30;;;;;;5103279;23;20437;-84
2021/08/21 23:44:49;;;;;;;6.93;4.70;;;17.40;98.30;;;;;;5101896;23;20485;-84
2021/08/21 23:46:52;;;;;;;5.27;4.77;;;17.40;98.30;;;;;;5101642;23;20453;-84
2021/08/21 23:48:55;;;;;;;6.23;5.30;;;17.40;98.30;;;;;;5102184;23;20474;-84
2021/08/21 23:50:59;;;;;;;5.40;4.87;;;17.40;98.30;;;;;;5101884;23;20423;-84
2021/08/21 23:53:03;;;;;;;5.23;4.70;;;17.40;98.30;;;;;;5102657;23;20498;-84
2021/08/21 23:55:07;;;;;;;4.97;4.47;;;17.40;98.30;;;;;;5094664;23;20519;-83
2021/08/21 23:57:12;;;;;;;6.17;4.83;;;17.40;98.30;;;;;;5103225;23;20507;-84
2021/08/21 23:59:14;;;;;;;5.10;4.43;;;17.40;98.30;;;;;;5103077;23;20449;-84
